createdAt,value
2018-07-10T17:12:14.835Z,8.03
2018-07-10T17:14:56.439Z,7.67
2018-07-10T17:17:26.492Z,9.07
2018-07-10T17:20:14.713Z,9.93
2018-07-10T17:22:44.477Z,11.30
2018-07-10T17:25:16.062Z,11.97
2018-07-10T17:27:49.245Z,13.60
2018-07-10T17:30:19.544Z,13.17
2018-07-10T17:32:49.420Z,15.17
2018-07-10T17:35:19.428Z,22.67
2018-07-10T17:37:52.316Z,15.73
2018-07-10T17:40:21.982Z,17.17
2018-07-10T17:42:51.585Z,17.17
2018-07-10T17:45:24.434Z,15.00
2018-07-10T17:47:58.994Z,17.47
2018-07-10T17:50:29.096Z,19.00
2018-07-10T17:53:00.182Z,17.00
2018-07-10T17:55:30.403Z,14.77
2018-07-10T18:00:38.083Z,16.70
2018-07-10T18:03:07.780Z,21.80
2018-07-10T18:05:37.690Z,18.63
2018-07-10T18:08:08.378Z,15.00
2018-07-10T18:10:40.056Z,13.00
2018-07-10T18:13:10.232Z,13.70
2018-07-10T18:15:40.242Z,14.20
2018-07-10T18:18:10.536Z,20.50
2018-07-10T18:20:40.137Z,16.80
2018-07-10T18:23:11.516Z,20.43
2018-07-10T18:25:41.607Z,20.87
2018-07-10T18:28:11.396Z,22.10
2018-07-10T18:30:41.595Z,22.20
2018-07-10T18:33:11.553Z,21.47
2018-07-10T18:35:41.626Z,23.20
2018-07-10T18:38:12.129Z,25.63
2018-07-10T18:40:42.645Z,19.93
2018-07-10T18:43:13.111Z,26.53
2018-07-10T18:45:42.909Z,24.47
2018-07-10T18:48:12.564Z,19.93
2018-07-10T18:50:43.415Z,17.83
2018-07-10T18:53:13.843Z,19.17
2018-07-10T18:55:44.653Z,23.33
2018-07-10T18:58:22.859Z,17.43
2018-07-10T19:03:10.962Z,19.43
2018-07-10T19:05:49.651Z,17.63
2018-07-10T19:08:20.790Z,17.73
2018-07-10T19:10:54.894Z,17.70
2018-07-10T19:13:35.012Z,17.80
2018-07-10T19:16:05.572Z,28.13
2018-07-10T19:18:39.374Z,19.07
2018-07-10T19:21:23.590Z,17.93
2018-07-10T19:23:54.498Z,20.83
2018-07-10T19:26:27.644Z,23.13
2018-07-10T19:30:12.778Z,21.70
2018-07-10T19:32:42.872Z,21.63
2018-07-10T19:35:12.405Z,22.60
2018-07-10T19:37:44.502Z,22.13
2018-07-10T19:40:14.517Z,21.17
2018-07-10T19:42:44.852Z,22.23
2018-07-10T19:45:15.898Z,21.20
2018-07-10T19:47:45.987Z,26.67
2018-07-10T19:50:19.396Z,22.63
2018-07-10T19:52:55.873Z,22.33
2018-07-10T19:55:29.124Z,23.40
2018-07-10T19:58:11.821Z,25.53
2018-07-10T20:00:51.117Z,22.53
2018-07-10T20:04:04.780Z,22.77
2018-07-10T20:08:46.375Z,23.33
2018-07-10T20:11:28.110Z,27.93
2018-07-10T20:13:57.903Z,31.43
2018-07-10T20:16:51.700Z,31.53
2018-07-10T20:19:32.261Z,25.27
2018-07-10T20:22:18.982Z,22.83
2018-07-10T20:25:34.212Z,26.87
2018-07-10T20:28:13.391Z,22.13
2018-07-10T20:30:59.874Z,19.87
2018-07-10T20:33:40.996Z,22.23
2018-07-10T20:36:11.388Z,24.13
2018-07-10T20:38:41.117Z,21.67
2018-07-10T20:41:10.640Z,20.40
2018-07-10T20:43:45.400Z,20.23
2018-07-10T20:46:15.988Z,21.53
2018-07-10T20:48:57.371Z,17.23
2018-07-10T20:53:44.394Z,18.50
2018-07-10T20:56:54.853Z,19.20
2018-07-10T20:59:34.798Z,17.67
2018-07-10T21:02:08.901Z,20.97
2018-07-10T21:05:02.137Z,20.53
2018-07-10T21:07:32.185Z,20.60
2018-07-10T21:10:27.273Z,20.97
2018-07-10T21:13:09.782Z,23.70
2018-07-10T21:15:55.767Z,24.27
2018-07-10T21:20:44.937Z,24.20
2018-07-10T21:23:33.625Z,19.97
2018-07-10T21:26:22.400Z,28.00
2018-07-10T21:28:55.863Z,27.27
2018-07-10T21:44:47.172Z,23.87
2018-07-10T21:47:34.796Z,22.10
2018-07-10T21:50:06.384Z,22.43
2018-07-10T21:52:36.223Z,22.17
2018-07-10T21:55:05.835Z,25.80
2018-07-10T21:57:41.691Z,25.67
2018-07-10T22:00:11.826Z,26.50
2018-07-10T22:02:41.377Z,23.27
2018-07-10T22:05:10.872Z,25.13
2018-07-10T22:07:41.432Z,25.80
2018-07-10T22:10:10.933Z,25.37
2018-07-10T22:12:46.938Z,27.13
2018-07-10T22:15:16.442Z,27.97
2018-07-10T22:17:46.700Z,30.17
2018-07-10T22:20:17.234Z,21.23
2018-07-10T22:22:46.758Z,26.10
2018-07-10T22:25:16.304Z,22.77
2018-07-10T22:27:45.961Z,23.80
2018-07-10T22:30:21.872Z,31.70
2018-07-10T22:32:57.995Z,28.70
2018-07-10T22:35:27.492Z,32.40
2018-07-10T22:37:57.520Z,31.67
2018-07-10T22:40:27.034Z,27.07
2018-07-10T22:42:56.730Z,24.00
2018-07-10T22:45:27.641Z,24.50
2018-07-10T22:47:57.172Z,24.53
2018-07-10T22:50:26.853Z,26.87
2018-07-10T22:52:59.952Z,23.87
2018-07-10T22:55:31.302Z,30.73
2018-07-10T22:58:07.111Z,30.73
2018-07-10T23:00:38.920Z,33.87
2018-07-10T23:03:24.552Z,38.90
2018-07-10T23:05:54.847Z,39.90
2018-07-10T23:08:36.099Z,42.57
2018-07-10T23:11:08.433Z,32.03
2018-07-10T23:13:40.655Z,37.00
2018-07-10T23:16:10.152Z,35.17
2018-07-10T23:18:40.299Z,42.53
2018-07-10T23:21:15.873Z,40.23
2018-07-10T23:23:45.457Z,33.33
2018-07-10T23:26:16.686Z,36.77
2018-07-10T23:28:51.044Z,29.80
2018-07-10T23:31:20.549Z,33.10
2018-07-10T23:34:23.336Z,31.70
2018-07-10T23:36:55.730Z,32.33
2018-07-10T23:39:37.881Z,24.00
2018-07-10T23:42:42.168Z,19.63
2018-07-10T23:45:42.460Z,23.90
2018-07-10T23:48:12.597Z,25.13
2018-07-10T23:50:42.143Z,21.57
2018-07-10T23:54:15.095Z,20.80
2018-07-10T23:56:44.669Z,20.37
2018-07-10T23:59:14.135Z,24.70
